Time;durP1;ratioP1;P1;durP2;ratioP2;P2;SDS_P1;SDS_P2;PMS_P1;PMS_P2;Temp;Humidity;BMP_temperature;BMP_pressure;BME280_temperature;BME280_humidity;BME280_pressure;Samples;Min_cycle;Max_cycle;Signal;HPM_P1;HPM_P2
2023/06/06 05:00:47;;;;;;;6.07;4.30;;;18.00;97.20;;;;;;1714281;28;20202;-66
2023/06/06 05:01:41;;;;;;;4.78;4.25;;;18.00;97.20;;;;;;1714254;28;20202;-66
2023/06/06 05:02:32;;;;;;;7.70;4.28;;;18.10;97.20;;;;;;1714122;28;20314;-66
2023/06/06 05:03:24;;;;;;;4.00;3.70;;;18.10;97.20;;;;;;1714324;28;20588;-66
2023/06/06 05:04:15;;;;;;;5.53;3.90;;;18.10;97.20;;;;;;1718175;28;20196;-65
2023/06/06 05:05:09;;;;;;;7.00;4.40;;;18.10;97.20;;;;;;1721044;28;20205;-68
2023/06/06 05:06:02;;;;;;;4.40;4.00;;;18.20;97.20;;;;;;1721015;28;20574;-68
2023/06/06 05:06:54;;;;;;;5.45;4.38;;;18.20;97.20;;;;;;1720816;28;20205;-67
2023/06/06 05:07:45;;;;;;;7.75;4.57;;;18.20;97.20;;;;;;1720962;28;20209;-68
2023/06/06 05:08:41;;;;;;;4.97;4.55;;;18.20;97.20;;;;;;1720954;28;20739;-68
2023/06/06 05:09:31;;;;;;;4.60;4.20;;;18.20;97.20;;;;;;1720905;28;20205;-67
2023/06/06 05:10:23;;;;;;;5.60;4.40;;;18.30;97.20;;;;;;1720948;28;20231;-67
2023/06/06 05:11:14;;;;;;;4.90;4.43;;;18.30;97.20;;;;;;1720941;28;20228;-68
2023/06/06 05:12:06;;;;;;;4.70;4.20;;;18.30;97.20;;;;;;1720974;28;20209;-67
2023/06/06 05:12:57;;;;;;;5.63;4.95;;;18.30;97.20;;;;;;1720905;28;20205;-67
2023/06/06 05:13:49;;;;;;;4.67;4.27;;;18.40;97.20;;;;;;1719250;28;20193;-68
2023/06/06 05:14:40;;;;;;;4.63;4.22;;;18.40;97.20;;;;;;1720520;28;20288;-70
2023/06/06 05:15:31;;;;;;;4.55;4.10;;;18.40;97.20;;;;;;1719257;28;20227;-68
2023/06/06 05:16:23;;;;;;;7.90;4.70;;;18.40;97.20;;;;;;1720576;28;20232;-68
2023/06/06 05:17:17;;;;;;;4.63;3.90;;;18.50;97.20;;;;;;1720396;28;20216;-66
2023/06/06 05:18:08;;;;;;;7.38;4.68;;;18.50;97.20;;;;;;1720809;28;20795;-66
2023/06/06 05:19:00;;;;;;;9.70;5.00;;;18.50;97.20;;;;;;1720881;28;20661;-66
2023/06/06 05:19:51;;;;;;;5.80;3.90;;;18.60;97.20;;;;;;1720962;28;20569;-66
2023/06/06 05:20:42;;;;;;;4.50;4.10;;;18.60;97.20;;;;;;1720879;28;20217;-66
2023/06/06 05:21:33;;;;;;;4.63;4.25;;;18.70;97.20;;;;;;1719426;28;20204;-67
2023/06/06 05:22:25;;;;;;;6.13;5.10;;;18.70;97.20;;;;;;1714093;28;20198;-66
2023/06/06 05:23:16;;;;;;;7.75;4.70;;;18.70;97.20;;;;;;1719463;28;20204;-66
2023/06/06 05:24:08;;;;;;;5.13;4.40;;;18.80;97.20;;;;;;1727551;28;20196;-66
2023/06/06 05:24:58;;;;;;;7.20;4.60;;;18.80;97.20;;;;;;1727519;28;20224;-66
2023/06/06 05:25:50;;;;;;;5.20;4.57;;;18.80;97.20;;;;;;1724661;28;20280;-66
2023/06/06 05:26:41;;;;;;;10.52;4.72;;;18.80;97.20;;;;;;1720863;28;20241;-66
2023/06/06 05:27:33;;;;;;;6.07;4.55;;;18.80;97.20;;;;;;1724159;28;20255;-66
2023/06/06 05:28:24;;;;;;;6.80;4.63;;;18.80;97.20;;;;;;1727519;28;20588;-66
2023/06/06 05:29:16;;;;;;;5.60;5.00;;;18.90;97.20;;;;;;1727552;28;20533;-66
2023/06/06 05:30:07;;;;;;;6.15;5.18;;;18.90;97.20;;;;;;1724934;28;20205;-65
2023/06/06 05:31:00;;;;;;;6.20;4.47;;;18.90;97.20;;;;;;1717149;28;20583;-68
2023/06/06 05:31:52;;;;;;;5.88;4.50;;;19.00;97.20;;;;;;1720372;28;20212;-70
2023/06/06 05:32:44;;;;;;;5.25;4.75;;;19.00;97.20;;;;;;1718514;28;20335;-67
2023/06/06 05:33:39;;;;;;;6.43;4.80;;;19.00;97.20;;;;;;1720368;28;20674;-67
2023/06/06 05:34:30;;;;;;;4.97;4.47;;;19.00;97.20;;;;;;1720397;28;20775;-67
2023/06/06 05:35:21;;;;;;;8.40;4.45;;;19.00;97.20;;;;;;1720749;28;20640;-67
2023/06/06 05:36:13;;;;;;;5.70;4.70;;;19.00;97.20;;;;;;1720693;28;20564;-67
2023/06/06 05:37:06;;;;;;;6.05;5.05;;;19.00;97.20;;;;;;1720541;28;20205;-67
2023/06/06 05:37:58;;;;;;;8.10;5.20;;;19.00;97.20;;;;;;1720682;28;20244;-68
2023/06/06 05:38:48;;;;;;;12.00;5.15;;;19.00;97.20;;;;;;1720663;28;20204;-67
2023/06/06 05:39:40;;;;;;;6.77;4.70;;;19.10;97.20;;;;;;1720399;28;20221;-67
2023/06/06 05:40:31;;;;;;;8.43;4.63;;;19.10;97.20;;;;;;1720603;28;20363;-67
2023/06/06 05:41:23;;;;;;;4.40;3.97;;;19.10;97.20;;;;;;1720691;28;20201;-67
2023/06/06 05:42:14;;;;;;;5.45;4.57;;;19.10;97.20;;;;;;1718577;28;20205;-68
2023/06/06 05:43:05;;;;;;;5.20;4.50;;;19.10;97.20;;;;;;1714085;28;20202;-68
2023/06/06 05:43:56;;;;;;;6.45;4.82;;;19.20;97.20;;;;;;1713947;28;20214;-67
2023/06/06 05:44:50;;;;;;;5.43;4.93;;;19.20;97.20;;;;;;1713631;28;20190;-68
2023/06/06 05:45:41;;;;;;;5.50;4.05;;;19.10;97.20;;;;;;1713991;28;20262;-68
2023/06/06 05:46:33;;;;;;;4.70;4.23;;;19.10;97.20;;;;;;1714051;28;20202;-68
2023/06/06 05:47:25;;;;;;;5.68;4.35;;;19.10;97.20;;;;;;1713645;28;20260;-68
2023/06/06 05:48:17;;;;;;;4.95;4.45;;;19.10;97.20;;;;;;1713889;28;20213;-67
2023/06/06 05:49:08;;;;;;;6.65;4.60;;;19.20;97.20;;;;;;1714026;28;20229;-68
2023/06/06 05:49:59;;;;;;;4.80;4.20;;;19.20;97.20;;;;;;1713975;28;20204;-68
2023/06/06 05:50:50;;;;;;;6.47;5.10;;;19.20;97.20;;;;;;1713951;28;20473;-69
2023/06/06 05:51:42;;;;;;;5.60;4.80;;;19.20;97.20;;;;;;1713481;28;20661;-70
2023/06/06 05:52:33;;;;;;;5.70;5.18;;;19.20;97.20;;;;;;1718033;28;20451;-70
2023/06/06 05:53:26;;;;;;;5.30;4.80;;;19.20;97.20;;;;;;1720683;28;20197;-70
2023/06/06 05:54:16;;;;;;;7.93;4.80;;;19.20;97.20;;;;;;1720681;28;20205;-69
2023/06/06 05:55:10;;;;;;;6.30;4.47;;;19.20;97.20;;;;;;1720646;28;20229;-70
2023/06/06 05:56:01;;;;;;;10.25;4.70;;;19.20;97.20;;;;;;1720694;28;20948;-70
2023/06/06 05:56:53;;;;;;;9.37;4.83;;;19.20;97.20;;;;;;1720434;28;20669;-69
2023/06/06 05:57:43;;;;;;;8.82;4.32;;;19.20;97.20;;;;;;1714631;28;20230;-69
2023/06/06 05:58:35;;;;;;;8.07;4.93;;;19.20;97.20;;;;;;1713880;28;20202;-70
2023/06/06 05:59:26;;;;;;;5.45;4.90;;;19.30;97.20;;;;;;1713913;28;20220;-70
2023/06/06 06:00:19;;;;;;;6.37;5.03;;;19.30;97.20;;;;;;1713819;28;20194;-69
2023/06/06 06:01:12;;;;;;;9.65;5.10;;;19.30;97.20;;;;;;1713985;28;20931;-70
2023/06/06 06:02:04;;;;;;;8.07;5.10;;;19.30;97.20;;;;;;1714100;28;20270;-69
2023/06/06 06:02:58;;;;;;;13.10;5.18;;;19.30;97.20;;;;;;1720647;28;20233;-69
2023/06/06 06:03:49;;;;;;;10.32;5.10;;;19.40;97.20;;;;;;1720606;28;20292;-70
2023/06/06 06:04:40;;;;;;;11.23;5.22;;;19.40;97.20;;;;;;1720545;28;20287;-70
2023/06/06 06:05:32;;;;;;;7.00;4.33;;;19.40;97.20;;;;;;1720697;28;20209;-70
2023/06/06 06:06:23;;;;;;;24.52;5.32;;;19.50;97.20;;;;;;1720591;28;20228;-69
2023/06/06 06:07:14;;;;;;;7.87;5.20;;;19.50;97.20;;;;;;1720069;28;20193;-70
2023/06/06 06:08:06;;;;;;;6.93;5.15;;;19.60;97.20;;;;;;1720577;28;20219;-69
2023/06/06 06:08:57;;;;;;;9.07;4.90;;;19.60;97.20;;;;;;1720554;28;20201;-69
2023/06/06 06:09:48;;;;;;;8.10;4.60;;;19.60;97.20;;;;;;1720632;28;20212;-69
2023/06/06 06:10:40;;;;;;;13.70;5.80;;;19.60;97.20;;;;;;1720506;28;20232;-70
2023/06/06 06:11:31;;;;;;;14.25;5.00;;;19.60;97.20;;;;;;1720647;28;20228;-70
2023/06/06 06:12:23;;;;;;;17.53;5.23;;;19.70;97.20;;;;;;1717815;28;20205;-70
2023/06/06 06:13:13;;;;;;;7.47;4.68;;;19.70;97.20;;;;;;1714027;28;20213;-69
2023/06/06 06:14:05;;;;;;;20.13;5.53;;;19.70;97.20;;;;;;1714035;28;20248;-69
2023/06/06 06:14:56;;;;;;;7.65;4.97;;;19.70;97.20;;;;;;1713821;28;20725;-69
2023/06/06 06:15:48;;;;;;;9.80;4.60;;;19.70;97.20;;;;;;1714022;28;20688;-69
2023/06/06 06:16:38;;;;;;;7.07;5.10;;;19.70;97.20;;;;;;1713825;28;20202;-69
2023/06/06 06:17:30;;;;;;;11.90;4.47;;;19.70;97.20;;;;;;1713670;28;20194;-69
2023/06/06 06:18:22;;;;;;;22.60;4.70;;;19.70;97.20;;;;;;1713853;28;20201;-69
2023/06/06 06:19:14;;;;;;;23.33;5.57;;;19.80;97.20;;;;;;1713908;28;20202;-68
2023/06/06 06:20:08;;;;;;;16.50;5.53;;;19.80;97.20;;;;;;1713902;28;20688;-68
2023/06/06 06:21:00;;;;;;;13.98;5.32;;;19.80;97.20;;;;;;1713827;28;20352;-68
2023/06/06 06:21:51;;;;;;;16.60;4.95;;;19.80;97.20;;;;;;1714018;28;20210;-68
2023/06/06 06:22:43;;;;;;;29.27;7.13;;;19.90;97.20;;;;;;1718686;28;20197;-68
2023/06/06 06:23:33;;;;;;;30.42;7.00;;;19.90;97.20;;;;;;1720539;28;20225;-68
2023/06/06 06:24:25;;;;;;;18.60;6.00;;;19.90;97.20;;;;;;1720579;28;20205;-67
2023/06/06 06:25:16;;;;;;;20.98;5.93;;;20.00;97.20;;;;;;1714892;28;20571;-67
2023/06/06 06:26:08;;;;;;;8.48;5.22;;;20.10;97.20;;;;;;1713853;28;20198;-67
2023/06/06 06:26:59;;;;;;;17.00;5.45;;;20.10;97.20;;;;;;1713456;28;20205;-67
2023/06/06 06:27:51;;;;;;;12.25;5.47;;;20.20;97.20;;;;;;1713850;28;20567;-68
2023/06/06 06:28:42;;;;;;;18.83;5.63;;;20.20;97.20;;;;;;1713836;28;20206;-68
2023/06/06 06:29:33;;;;;;;15.30;4.73;;;20.30;97.20;;;;;;1713806;28;20201;-68
2023/06/06 06:30:25;;;;;;;11.35;4.57;;;20.30;97.20;;;;;;1714679;28;20445;-70
2023/06/06 06:31:17;;;;;;;13.25;4.75;;;20.30;97.20;;;;;;1713959;28;20620;-70
2023/06/06 06:32:08;;;;;;;5.30;3.78;;;20.40;97.20;;;;;;1713857;28;20201;-70
2023/06/06 06:33:00;;;;;;;13.57;4.60;;;20.40;97.20;;;;;;1720526;28;20202;-67
2023/06/06 06:33:52;;;;;;;6.22;4.45;;;20.50;97.20;;;;;;1720619;28;20220;-68
2023/06/06 06:34:43;;;;;;;5.38;3.50;;;20.50;97.20;;;;;;1720548;28;20204;-68
2023/06/06 06:35:34;;;;;;;11.88;5.28;;;20.50;97.20;;;;;;1720734;28;20205;-68
2023/06/06 06:36:26;;;;;;;11.50;4.70;;;20.50;97.20;;;;;;1720672;28;20196;-67
2023/06/06 06:37:17;;;;;;;17.23;5.43;;;20.50;97.20;;;;;;1719857;28;20623;-67
2023/06/06 06:38:08;;;;;;;9.70;4.57;;;20.60;97.20;;;;;;1720452;28;20617;-67
2023/06/06 06:38:59;;;;;;;13.20;5.43;;;20.60;97.20;;;;;;1720514;28;20212;-67
2023/06/06 06:39:51;;;;;;;6.43;4.07;;;20.70;97.20;;;;;;1720605;28;20683;-67
2023/06/06 06:40:41;;;;;;;7.82;4.80;;;20.70;97.20;;;;;;1720476;28;20225;-67
2023/06/06 06:41:33;;;;;;;7.37;4.23;;;20.70;97.20;;;;;;1720556;28;20193;-67
2023/06/06 06:42:25;;;;;;;22.80;5.82;;;20.80;97.20;;;;;;1717878;28;20205;-67
2023/06/06 06:43:16;;;;;;;44.63;8.20;;;20.80;97.20;;;;;;1713831;28;20212;-68
2023/06/06 06:44:07;;;;;;;27.90;7.53;;;20.80;97.20;;;;;;1713761;28;20604;-68
2023/06/06 06:44:59;;;;;;;16.97;5.40;;;20.80;97.20;;;;;;1713809;28;20565;-67
2023/06/06 06:45:50;;;;;;;12.85;5.85;;;20.90;97.20;;;;;;1713896;28;20475;-67
2023/06/06 06:46:41;;;;;;;17.13;5.60;;;20.90;97.20;;;;;;1713793;28;20198;-67
2023/06/06 06:47:32;;;;;;;20.10;6.43;;;20.90;97.20;;;;;;1713492;28;20300;-67
2023/06/06 06:48:24;;;;;;;26.97;6.73;;;21.00;97.20;;;;;;1713650;28;20198;-67
2023/06/06 06:49:17;;;;;;;26.80;7.32;;;21.00;97.20;;;;;;1713802;28;20202;-67
2023/06/06 06:50:10;;;;;;;71.05;11.82;;;21.00;97.20;;;;;;1713769;28;20229;-67
2023/06/06 06:51:01;;;;;;;12.95;5.63;;;21.10;97.20;;;;;;1713822;28;20233;-67
2023/06/06 06:51:53;;;;;;;32.60;7.03;;;21.10;97.20;;;;;;1713679;28;20707;-67
2023/06/06 06:52:43;;;;;;;22.58;6.43;;;21.10;97.20;;;;;;1718536;28;20209;-67
2023/06/06 06:53:38;;;;;;;38.37;8.23;;;21.10;97.20;;;;;;1720489;28;20201;-67
2023/06/06 06:54:29;;;;;;;17.00;7.32;;;21.10;97.20;;;;;;1720586;28;20263;-67
2023/06/06 06:55:23;;;;;;;13.67;5.43;;;21.20;97.20;;;;;;1720402;28;20229;-67
2023/06/06 06:56:16;;;;;;;19.30;5.90;;;21.20;97.20;;;;;;1720475;28;20201;-66
2023/06/06 06:57:09;;;;;;;6.70;4.05;;;21.20;97.20;;;;;;1720017;28;20260;-67
2023/06/06 06:58:01;;;;;;;15.50;5.22;;;21.20;97.20;;;;;;1713647;28;20214;-68
2023/06/06 06:58:53;;;;;;;12.63;5.40;;;21.20;97.20;;;;;;1713808;28;20198;-67
2023/06/06 06:59:43;;;;;;;14.95;6.00;;;21.10;97.20;;;;;;1713728;28;20217;-68
2023/06/06 07:00:35;;;;;;;23.87;6.87;;;21.20;97.20;;;;;;1717463;28;20220;-68
2023/06/06 07:01:27;;;;;;;15.25;5.22;;;21.20;97.20;;;;;;1720441;28;20201;-68
2023/06/06 07:02:19;;;;;;;17.13;5.50;;;21.20;97.20;;;;;;1719161;28;20201;-68
2023/06/06 07:03:10;;;;;;;16.75;5.10;;;21.20;97.20;;;;;;1713793;28;20304;-68
2023/06/06 07:04:03;;;;;;;19.13;6.50;;;21.20;97.20;;;;;;1713757;28;20205;-68
2023/06/06 07:04:57;;;;;;;25.17;6.35;;;21.20;97.20;;;;;;1713785;28;20965;-67
2023/06/06 07:05:49;;;;;;;25.23;6.07;;;21.20;97.20;;;;;;1713780;28;20206;-68
2023/06/06 07:06:40;;;;;;;15.15;5.45;;;21.20;97.20;;;;;;1713635;28;20201;-68
2023/06/06 07:07:31;;;;;;;6.60;4.17;;;21.20;97.20;;;;;;1713446;28;20620;-68
2023/06/06 07:08:22;;;;;;;12.45;5.05;;;21.30;97.20;;;;;;1713833;28;20201;-67
2023/06/06 07:09:15;;;;;;;45.38;9.30;;;21.30;97.20;;;;;;1713757;28;20202;-67
2023/06/06 07:10:06;;;;;;;29.80;7.32;;;21.30;97.20;;;;;;1713751;28;20245;-67
2023/06/06 07:10:58;;;;;;;35.35;8.00;;;21.30;97.20;;;;;;1713649;28;20569;-67
2023/06/06 07:11:48;;;;;;;38.83;7.85;;;21.30;97.20;;;;;;1713673;28;20581;-67
2023/06/06 07:12:40;;;;;;;36.03;8.00;;;21.40;97.20;;;;;;1717933;28;20587;-68
2023/06/06 07:13:31;;;;;;;54.17;9.77;;;21.40;97.20;;;;;;1721787;28;20228;-67
2023/06/06 07:14:24;;;;;;;36.80;7.23;;;21.40;97.20;;;;;;1721737;28;20204;-67
2023/06/06 07:15:15;;;;;;;30.27;7.53;;;21.50;97.20;;;;;;1721594;28;20467;-67
2023/06/06 07:16:08;;;;;;;14.63;6.50;;;21.50;97.20;;;;;;1721664;28;20201;-68
2023/06/06 07:16:59;;;;;;;12.98;5.20;;;21.50;97.20;;;;;;1721305;28;20463;-68
2023/06/06 07:17:51;;;;;;;13.67;5.27;;;21.60;97.20;;;;;;1721388;28;20204;-68
2023/06/06 07:18:42;;;;;;;6.05;4.65;;;21.60;97.20;;;;;;1721566;28;20216;-68
2023/06/06 07:19:33;;;;;;;19.57;5.63;;;21.60;97.20;;;;;;1721660;28;20209;-68
2023/06/06 07:20:25;;;;;;;6.10;4.53;;;21.60;97.20;;;;;;1721603;28;20201;-67
2023/06/06 07:21:17;;;;;;;7.45;4.45;;;21.60;97.20;;;;;;1721543;28;20669;-68
2023/06/06 07:22:08;;;;;;;8.95;4.22;;;21.60;97.20;;;;;;1721282;28;20205;-67
2023/06/06 07:23:00;;;;;;;16.67;5.80;;;21.60;97.20;;;;;;1715008;28;20217;-67
2023/06/06 07:23:51;;;;;;;28.55;6.70;;;21.60;97.20;;;;;;1714985;28;20549;-67
2023/06/06 07:24:43;;;;;;;13.83;5.13;;;21.60;97.20;;;;;;1714933;28;20213;-67
2023/06/06 07:25:34;;;;;;;22.30;6.45;;;21.60;97.20;;;;;;1714886;28;20573;-68
2023/06/06 07:26:26;;;;;;;15.50;5.93;;;21.60;97.20;;;;;;1714888;28;20593;-67
2023/06/06 07:27:18;;;;;;;13.52;5.22;;;21.70;97.20;;;;;;1714543;28;20221;-68
2023/06/06 07:28:13;;;;;;;11.02;4.97;;;21.70;97.20;;;;;;1714790;28;20202;-68
2023/06/06 07:29:04;;;;;;;27.50;6.63;;;21.70;97.20;;;;;;1714839;28;20222;-68
2023/06/06 07:29:55;;;;;;;30.43;7.03;;;21.70;97.20;;;;;;1715624;28;20743;-67
2023/06/06 07:30:46;;;;;;;9.15;4.60;;;21.80;97.20;;;;;;1714757;28;20491;-68
2023/06/06 07:31:38;;;;;;;9.00;4.67;;;21.80;97.20;;;;;;1714847;28;20209;-67
2023/06/06 07:32:29;;;;;;;16.08;5.55;;;21.80;97.20;;;;;;1716764;28;20744;-68
2023/06/06 07:33:21;;;;;;;8.20;4.50;;;21.80;97.20;;;;;;1721549;28;20559;-68
2023/06/06 07:34:11;;;;;;;7.82;4.10;;;21.90;97.20;;;;;;1721499;28;20584;-67
2023/06/06 07:35:04;;;;;;;6.93;4.20;;;21.90;97.20;;;;;;1721574;28;20613;-68
2023/06/06 07:35:56;;;;;;;6.90;4.32;;;21.90;97.20;;;;;;1721371;28;20918;-69
2023/06/06 07:36:48;;;;;;;5.53;4.00;;;21.90;97.20;;;;;;1721195;28;20217;-66
2023/06/06 07:37:39;;;;;;;6.63;4.40;;;21.90;97.20;;;;;;1721146;28;20201;-67
2023/06/06 07:38:31;;;;;;;14.00;5.75;;;22.00;97.20;;;;;;1721444;28;20263;-67
2023/06/06 07:39:21;;;;;;;20.42;6.28;;;22.00;97.20;;;;;;1721502;28;20197;-68
2023/06/06 07:40:14;;;;;;;32.83;8.20;;;22.00;97.20;;;;;;1721433;28;20193;-68
2023/06/06 07:41:05;;;;;;;7.38;4.65;;;22.10;97.20;;;;;;1721485;28;20720;-68
2023/06/06 07:41:57;;;;;;;6.10;4.00;;;22.10;97.20;;;;;;1721370;28;20660;-68
2023/06/06 07:42:48;;;;;;;5.32;4.30;;;22.10;97.20;;;;;;1716432;28;20488;-67
2023/06/06 07:43:40;;;;;;;6.93;4.60;;;22.10;97.20;;;;;;1714706;28;20209;-68
2023/06/06 07:44:31;;;;;;;13.10;5.25;;;22.20;97.20;;;;;;1714800;28;20445;-68
2023/06/06 07:45:22;;;;;;;9.60;4.73;;;22.20;97.20;;;;;;1714774;28;20212;-68
2023/06/06 07:46:13;;;;;;;10.10;4.50;;;22.30;97.20;;;;;;1714762;28;20206;-68
2023/06/06 07:47:05;;;;;;;9.87;4.53;;;22.30;97.20;;;;;;1714439;28;20212;-68
2023/06/06 07:47:57;;;;;;;13.90;5.85;;;22.40;97.20;;;;;;1714640;28;20596;-67
2023/06/06 07:48:48;;;;;;;5.95;4.90;;;22.40;97.20;;;;;;1714653;28;20316;-68
2023/06/06 07:49:41;;;;;;;15.23;5.60;;;22.50;97.20;;;;;;1714737;28;20229;-68
2023/06/06 07:50:32;;;;;;;10.38;3.90;;;22.50;97.20;;;;;;1714652;28;20334;-68
2023/06/06 07:51:25;;;;;;;13.15;5.40;;;22.60;97.20;;;;;;1714791;28;20201;-68
2023/06/06 07:52:17;;;;;;;13.90;5.70;;;22.60;97.20;;;;;;1714811;28;20281;-67
2023/06/06 07:53:10;;;;;;;19.05;5.07;;;22.70;97.20;;;;;;1721484;28;20296;-68
2023/06/06 07:54:02;;;;;;;13.13;5.65;;;22.70;97.20;;;;;;1721392;28;20205;-67
2023/06/06 07:54:53;;;;;;;11.70;4.97;;;22.80;97.20;;;;;;1721425;28;20205;-67
2023/06/06 07:55:45;;;;;;;17.10;5.17;;;22.90;97.20;;;;;;1721322;28;20221;-67
2023/06/06 07:56:37;;;;;;;5.75;4.13;;;22.90;97.20;;;;;;1721384;28;20212;-68
2023/06/06 07:57:30;;;;;;;5.47;4.10;;;22.90;97.20;;;;;;1720830;28;20204;-67
2023/06/06 07:58:25;;;;;;;8.10;4.13;;;23.00;97.20;;;;;;1721227;28;20467;-67
2023/06/06 07:59:17;;;;;;;10.38;5.30;;;23.00;97.20;;;;;;1721434;28;21137;-68
2023/06/06 08:00:10;;;;;;;22.70;7.03;;;23.00;97.20;;;;;;1721427;28;20212;-68
2023/06/06 08:01:03;;;;;;;33.92;8.70;;;23.10;97.20;;;;;;1721332;28;20209;-68
2023/06/06 08:01:54;;;;;;;18.25;5.38;;;23.10;97.20;;;;;;1721397;28;20212;-68
2023/06/06 08:02:45;;;;;;;8.17;4.43;;;23.10;97.20;;;;;;1720726;28;20200;-67
2023/06/06 08:03:36;;;;;;;7.03;4.00;;;23.20;97.20;;;;;;1721300;28;20224;-67
2023/06/06 08:04:28;;;;;;;11.37;4.30;;;23.20;97.20;;;;;;1721383;28;20440;-67
2023/06/06 08:05:19;;;;;;;11.65;4.70;;;23.20;97.20;;;;;;1721293;28;20471;-68
2023/06/06 08:06:11;;;;;;;5.27;4.53;;;23.10;97.20;;;;;;1721348;28;20196;-68
2023/06/06 08:07:03;;;;;;;9.97;5.30;;;23.20;97.20;;;;;;1720995;28;20470;-68
2023/06/06 08:07:55;;;;;;;8.73;4.60;;;23.10;97.20;;;;;;1721013;28;20534;-68
2023/06/06 08:08:48;;;;;;;15.73;6.20;;;23.10;97.20;;;;;;1721259;28;20448;-68
2023/06/06 08:09:40;;;;;;;11.33;5.10;;;23.20;97.20;;;;;;1721246;28;20204;-67
2023/06/06 08:10:30;;;;;;;16.17;5.82;;;23.20;97.20;;;;;;1721313;28;20464;-67
2023/06/06 08:11:22;;;;;;;82.20;13.50;;;23.20;97.20;;;;;;1721347;28;20211;-68
2023/06/06 08:12:13;;;;;;;120.63;19.73;;;23.30;97.20;;;;;;1721192;28;20208;-68
2023/06/06 08:13:05;;;;;;;29.73;8.32;;;23.40;97.20;;;;;;1714894;28;20813;-67
2023/06/06 08:13:56;;;;;;;8.77;5.50;;;23.40;97.20;;;;;;1714525;28;20260;-68
2023/06/06 08:14:47;;;;;;;101.07;17.80;;;23.50;97.20;;;;;;1714610;28;20504;-68
2023/06/06 08:15:38;;;;;;;128.60;20.55;;;23.50;97.20;;;;;;1714394;28;20202;-68
2023/06/06 08:16:30;;;;;;;104.80;17.60;;;23.50;97.20;;;;;;1714652;28;20209;-68
2023/06/06 08:17:20;;;;;;;23.50;5.55;;;23.50;97.20;;;;;;1714569;28;20597;-68
2023/06/06 08:18:14;;;;;;;11.50;5.10;;;23.60;97.20;;;;;;1720877;28;20229;-68
2023/06/06 08:19:05;;;;;;;10.60;4.90;;;23.60;97.20;;;;;;1721220;28;20205;-68
2023/06/06 08:19:57;;;;;;;7.50;4.63;;;23.70;97.20;;;;;;1721213;28;20207;-68
2023/06/06 08:20:47;;;;;;;6.40;4.70;;;23.70;97.20;;;;;;1721228;28;20272;-68
2023/06/06 08:21:39;;;;;;;5.67;3.70;;;23.70;97.20;;;;;;1721236;28;20441;-68
2023/06/06 08:22:33;;;;;;;7.20;4.18;;;23.70;97.20;;;;;;1719482;28;20209;-68
2023/06/06 08:23:25;;;;;;;10.93;4.90;;;23.80;97.20;;;;;;1714519;28;20268;-68
2023/06/06 08:24:16;;;;;;;5.00;4.30;;;23.80;97.20;;;;;;1713570;28;20449;-68
2023/06/06 08:25:08;;;;;;;11.30;5.07;;;23.80;97.20;;;;;;1714471;28;20447;-68
2023/06/06 08:25:59;;;;;;;18.87;6.63;;;23.80;97.20;;;;;;1714469;28;20206;-68
2023/06/06 08:26:51;;;;;;;20.90;6.77;;;23.80;97.20;;;;;;1714320;28;20445;-67
2023/06/06 08:27:42;;;;;;;29.63;8.53;;;23.80;97.20;;;;;;1714452;28;20453;-67
2023/06/06 08:28:34;;;;;;;35.07;6.70;;;23.90;97.20;;;;;;1714506;28;20496;-68
2023/06/06 08:29:26;;;;;;;34.70;8.40;;;23.90;97.20;;;;;;1714482;28;20297;-68
2023/06/06 08:30:17;;;;;;;13.17;5.83;;;24.00;97.20;;;;;;1715296;28;20440;-67
2023/06/06 08:31:08;;;;;;;20.70;6.90;;;24.00;97.20;;;;;;1714532;28;20452;-67
2023/06/06 08:32:01;;;;;;;33.03;8.15;;;24.10;97.20;;;;;;1714388;28;20999;-68
2023/06/06 08:32:52;;;;;;;23.43;6.03;;;24.20;97.20;;;;;;1718397;28;20201;-67
2023/06/06 08:33:45;;;;;;;5.50;4.00;;;24.20;97.20;;;;;;1721122;28;20448;-68
2023/06/06 08:34:38;;;;;;;11.77;4.73;;;24.20;97.20;;;;;;1721030;28;20453;-68
2023/06/06 08:35:29;;;;;;;34.03;7.83;;;24.20;97.20;;;;;;1721185;28;20440;-68
2023/06/06 08:36:20;;;;;;;46.05;9.18;;;24.30;97.20;;;;;;1721044;28;20264;-68
2023/06/06 08:37:12;;;;;;;6.20;3.77;;;24.30;97.20;;;;;;1720933;28;20649;-67
2023/06/06 08:38:04;;;;;;;18.00;6.90;;;24.30;97.20;;;;;;1720685;28;20676;-68
2023/06/06 08:38:56;;;;;;;20.17;5.10;;;24.30;97.20;;;;;;1721147;28;20932;-68
2023/06/06 08:39:47;;;;;;;28.93;7.93;;;24.30;97.20;;;;;;1721076;28;20449;-68
2023/06/06 08:40:39;;;;;;;9.03;5.00;;;24.40;97.20;;;;;;1721022;28;20543;-68
2023/06/06 08:41:32;;;;;;;8.77;4.00;;;24.40;97.20;;;;;;1721166;28;20448;-68
2023/06/06 08:42:27;;;;;;;19.63;6.07;;;24.50;97.20;;;;;;1719404;28;20444;-68
2023/06/06 08:43:17;;;;;;;19.60;5.47;;;24.50;97.20;;;;;;1714359;28;20438;-68
2023/06/06 08:44:10;;;;;;;16.13;5.27;;;24.60;97.20;;;;;;1714487;28;20441;-67
2023/06/06 08:45:01;;;;;;;24.00;5.97;;;24.60;97.20;;;;;;1720980;28;20448;-68
2023/06/06 08:45:56;;;;;;;22.90;6.50;;;24.70;97.20;;;;;;1720796;28;20966;-67
2023/06/06 08:46:49;;;;;;;19.50;7.97;;;24.70;97.20;;;;;;1720817;28;20452;-67
2023/06/06 08:47:43;;;;;;;6.70;3.57;;;24.80;97.20;;;;;;1721057;28;20255;-68
2023/06/06 08:48:34;;;;;;;5.20;3.97;;;24.80;97.20;;;;;;1721020;28;20834;-68
2023/06/06 08:49:27;;;;;;;9.87;5.40;;;24.80;97.20;;;;;;1721128;28;20441;-67
2023/06/06 08:50:21;;;;;;;6.10;4.93;;;24.80;97.20;;;;;;1720933;28;20445;-68
2023/06/06 08:51:13;;;;;;;14.67;6.97;;;24.80;97.20;;;;;;1714364;28;20461;-67
2023/06/06 08:52:06;;;;;;;9.77;4.70;;;24.90;97.20;;;;;;1714319;28;20540;-68
2023/06/06 08:53:04;;;;;;;5.70;4.33;;;25.00;97.20;;;;;;1718606;28;20444;-67
2023/06/06 08:53:58;;;;;;;4.03;3.73;;;25.00;97.20;;;;;;1721106;28;20503;-68
2023/06/06 08:54:50;;;;;;;5.13;3.60;;;25.10;97.20;;;;;;1721126;28;20444;-68
2023/06/06 08:55:42;;;;;;;4.43;4.03;;;25.00;97.20;;;;;;1720927;28;20498;-67
2023/06/06 08:56:37;;;;;;;5.73;4.40;;;25.00;97.20;;;;;;1721205;28;20779;-68
2023/06/06 08:57:28;;;;;;;5.00;4.60;;;25.00;97.20;;;;;;1720436;28;20514;-67
2023/06/06 08:58:19;;;;;;;8.13;4.80;;;25.00;97.20;;;;;;1720953;28;20495;-66
2023/06/06 08:59:10;;;;;;;11.10;4.93;;;25.10;97.20;;;;;;1721075;28;20201;-67
2023/06/06 09:00:11;;;;;;;13.13;4.13;;;25.10;97.20;;;;;;1720988;28;20448;-68
2023/06/06 09:01:02;;;;;;;4.00;3.33;;;25.20;97.20;;;;;;1720984;28;20491;-68
2023/06/06 09:01:55;;;;;;;10.70;3.43;;;25.20;97.20;;;;;;1720600;28;20448;-68
2023/06/06 09:02:46;;;;;;;7.13;4.10;;;25.30;97.20;;;;;;1717923;28;20860;-68
2023/06/06 09:03:43;;;;;;;5.83;3.90;;;25.40;97.20;;;;;;1714215;28;20449;-68
2023/06/06 09:04:34;;;;;;;7.83;3.80;;;25.40;97.20;;;;;;1714350;28;20785;-68
2023/06/06 09:05:26;;;;;;;7.10;4.40;;;25.50;97.20;;;;;;1714269;28;20469;-68
2023/06/06 09:06:17;;;;;;;7.37;3.93;;;25.60;97.20;;;;;;1714271;28;20437;-68
2023/06/06 09:07:12;;;;;;;7.83;4.40;;;25.60;97.20;;;;;;1713976;28;20449;-68
2023/06/06 09:08:04;;;;;;;5.93;3.90;;;25.70;97.20;;;;;;1714132;28;20209;-67
2023/06/06 09:08:57;;;;;;;5.73;3.63;;;25.80;97.20;;;;;;1714327;28;20445;-67
2023/06/06 09:09:49;;;;;;;9.30;4.03;;;25.80;97.20;;;;;;1714246;28;20477;-68
2023/06/06 09:10:40;;;;;;;11.37;4.27;;;25.80;97.20;;;;;;1714104;28;20465;-68
2023/06/06 09:11:31;;;;;;;15.03;4.30;;;25.90;97.20;;;;;;1714399;28;20774;-67
2023/06/06 09:12:23;;;;;;;7.77;3.80;;;25.90;97.20;;;;;;1714083;28;20500;-67
2023/06/06 09:13:14;;;;;;;9.73;4.40;;;26.00;97.20;;;;;;1720742;28;20468;-67
2023/06/06 09:14:06;;;;;;;11.07;5.10;;;26.10;97.20;;;;;;1720859;28;20453;-67
2023/06/06 09:14:57;;;;;;;8.03;4.73;;;26.10;97.20;;;;;;1720922;28;20455;-67
2023/06/06 09:15:48;;;;;;;4.73;4.30;;;26.20;97.20;;;;;;1720960;28;20449;-67
2023/06/06 09:16:39;;;;;;;8.90;6.03;;;26.20;97.20;;;;;;1720880;28;20229;-67
2023/06/06 09:17:36;;;;;;;4.30;3.77;;;26.20;97.20;;;;;;1719528;28;20450;-67
2023/06/06 09:18:27;;;;;;;5.70;4.30;;;26.10;97.20;;;;;;1714206;28;20202;-68
2023/06/06 09:19:24;;;;;;;7.60;4.57;;;26.10;97.20;;;;;;1714243;28;20441;-68
2023/06/06 09:20:16;;;;;;;5.77;5.23;;;26.20;97.20;;;;;;1714126;28;20827;-68
2023/06/06 09:21:08;;;;;;;6.60;4.00;;;26.20;97.20;;;;;;1714210;28;20447;-68
2023/06/06 09:22:00;;;;;;;9.47;4.47;;;26.30;97.20;;;;;;1714073;28;20846;-67
2023/06/06 09:22:54;;;;;;;7.47;3.60;;;26.30;97.20;;;;;;1717635;28;20812;-68
2023/06/06 09:23:45;;;;;;;5.30;3.90;;;26.40;97.20;;;;;;1720801;28;20815;-68
2023/06/06 09:24:43;;;;;;;7.83;4.80;;;26.40;97.20;;;;;;1720840;28;20436;-68
2023/06/06 09:25:34;;;;;;;5.20;3.90;;;26.50;97.20;;;;;;1720840;28;20979;-68
2023/06/06 09:26:26;;;;;;;7.13;4.17;;;26.50;97.20;;;;;;1720977;28;21137;-68
2023/06/06 09:27:27;;;;;;;5.40;4.90;;;26.60;97.20;;;;;;1720595;28;20212;-68
2023/06/06 09:28:20;;;;;;;5.73;4.40;;;26.60;97.20;;;;;;1720788;28;20930;-68